createdAt,value
2024-03-05T00:00:26.567Z,98931.41
2024-03-05T00:02:52.964Z,98934.66
2024-03-05T00:05:19.767Z,98937.34
2024-03-05T00:07:46.802Z,98920.41
2024-03-05T00:10:13.991Z,98928.25
2024-03-05T00:12:40.766Z,98923.56
2024-03-05T00:15:07.742Z,98922.94
2024-03-05T00:17:34.171Z,98923.53
2024-03-05T00:20:00.710Z,98923.28
2024-03-05T00:22:27.201Z,98921.91
2024-03-05T00:24:53.698Z,98924.84
2024-03-05T00:27:20.211Z,98925.41
2024-03-05T00:29:46.836Z,98930.22
2024-03-05T00:32:13.262Z,98924.91
2024-03-05T00:34:39.836Z,98927.28
2024-03-05T00:37:07.074Z,98930.59
2024-03-05T00:39:33.692Z,98932.63
2024-03-05T00:42:00.086Z,98933.25
2024-03-05T00:44:27.690Z,98923.00
2024-03-05T00:46:54.551Z,98924.56
2024-03-05T00:49:21.686Z,98932.31
2024-03-05T00:51:48.653Z,98933.91
2024-03-05T00:54:15.392Z,98942.22
2024-03-05T00:56:41.993Z,98947.53
2024-03-05T00:59:08.420Z,98948.13
2024-03-05T01:01:35.784Z,98950.59
2024-03-05T01:04:02.347Z,98952.25
2024-03-05T01:06:28.884Z,98948.13
2024-03-05T01:08:55.315Z,98953.78
2024-03-05T01:11:21.756Z,98954.41
2024-03-05T01:13:48.269Z,98952.13
2024-03-05T01:16:14.727Z,98961.22
2024-03-05T01:18:42.309Z,98957.41
2024-03-05T01:21:08.819Z,98963.31
2024-03-05T01:23:35.316Z,98964.16
2024-03-05T01:26:02.070Z,98956.31
2024-03-05T01:28:32.186Z,98945.44
2024-03-05T01:31:00.759Z,98952.47
2024-03-05T01:33:27.587Z,98953.75
2024-03-05T01:35:54.218Z,98951.81
2024-03-05T01:38:21.503Z,98950.75
2024-03-05T01:40:48.114Z,98948.84
2024-03-05T01:43:15.931Z,98950.53
2024-03-05T01:45:43.678Z,98949.31
2024-03-05T01:48:12.265Z,98948.16
2024-03-05T01:50:39.013Z,98951.88
2024-03-05T01:53:13.379Z,98951.75
2024-03-05T01:55:40.361Z,98954.31
2024-03-05T01:58:08.925Z,98948.66
2024-03-05T02:00:37.657Z,98951.16
2024-03-05T02:03:05.243Z,98944.72
2024-03-05T02:05:33.742Z,98944.50
2024-03-05T02:08:00.248Z,98938.97
2024-03-05T02:10:28.012Z,98942.56
2024-03-05T02:12:54.442Z,98938.75
2024-03-05T02:15:22.026Z,98940.19
2024-03-05T02:17:48.759Z,98935.59
2024-03-05T02:20:15.324Z,98939.72
2024-03-05T02:22:42.759Z,98935.13
2024-03-05T02:25:10.664Z,98933.91
2024-03-05T02:27:38.062Z,98932.25
2024-03-05T02:30:11.293Z,98937.28
2024-03-05T02:32:41.885Z,98935.50
2024-03-05T02:35:09.646Z,98929.31
2024-03-05T02:37:40.029Z,98940.72
2024-03-05T02:40:11.094Z,98938.63
2024-03-05T02:42:38.034Z,98938.50
2024-03-05T02:45:08.460Z,98950.81
2024-03-05T02:47:43.561Z,98945.00
2024-03-05T02:50:11.549Z,98948.88
2024-03-05T02:52:39.957Z,98947.16
2024-03-05T02:55:10.602Z,98945.22
2024-03-05T02:57:42.216Z,98952.81
2024-03-05T03:00:10.105Z,98939.84
2024-03-05T03:02:36.768Z,98942.13
2024-03-05T03:05:03.921Z,98939.56
2024-03-05T03:07:30.380Z,98943.44
2024-03-05T03:09:56.885Z,98946.31
2024-03-05T03:12:23.353Z,98952.84
2024-03-05T03:14:49.806Z,98948.59
2024-03-05T03:17:16.494Z,98942.31
2024-03-05T03:19:44.040Z,98945.59
2024-03-05T03:22:10.612Z,98949.69
2024-03-05T03:24:37.132Z,98953.00
2024-03-05T03:27:03.701Z,98943.00
2024-03-05T03:29:30.096Z,98955.19
2024-03-05T03:31:57.214Z,98953.88
2024-03-05T03:34:23.894Z,98955.34
2024-03-05T03:36:50.441Z,98949.06
2024-03-05T03:39:24.233Z,98946.41
2024-03-05T03:41:55.847Z,98947.00
2024-03-05T03:44:23.282Z,98947.66
2024-03-05T03:46:50.547Z,98948.38
2024-03-05T03:49:21.564Z,98953.31
2024-03-05T03:51:48.616Z,98948.66
2024-03-05T03:54:15.049Z,98944.66
2024-03-05T03:56:41.825Z,98949.63
2024-03-05T03:59:08.851Z,98953.97
2024-03-05T04:01:37.367Z,98960.13
2024-03-05T04:04:04.067Z,98965.22
2024-03-05T04:06:31.853Z,98965.84
2024-03-05T04:08:58.368Z,98967.19
2024-03-05T04:11:24.842Z,98965.38
2024-03-05T04:13:51.268Z,98967.91
2024-03-05T04:16:17.690Z,98965.03
2024-03-05T04:18:46.739Z,98966.59
2024-03-05T04:21:13.727Z,98967.19
2024-03-05T04:23:40.653Z,98961.66
2024-03-05T04:26:14.261Z,98966.00
2024-03-05T04:28:50.098Z,98964.06
2024-03-05T04:31:18.765Z,98962.03
2024-03-05T04:33:47.993Z,98965.41
2024-03-05T04:36:17.461Z,98968.78
2024-03-05T04:38:44.715Z,98968.78
2024-03-05T04:41:12.263Z,98980.16
2024-03-05T04:43:44.564Z,98975.69
2024-03-05T04:46:14.330Z,98973.41
2024-03-05T04:48:40.767Z,98976.28
2024-03-05T04:51:11.103Z,98978.97
2024-03-05T04:53:37.813Z,98976.06
2024-03-05T04:56:04.602Z,98973.13
2024-03-05T04:58:31.285Z,98982.59
2024-03-05T05:00:57.777Z,98981.25
2024-03-05T05:03:24.638Z,98983.09
2024-03-05T05:05:51.232Z,98979.44
2024-03-05T05:08:20.270Z,98984.75
2024-03-05T05:10:48.876Z,98980.03
2024-03-05T05:13:15.407Z,98973.63
2024-03-05T05:15:41.915Z,98970.84
2024-03-05T05:18:08.579Z,98979.53
2024-03-05T05:20:35.068Z,98978.69
2024-03-05T05:23:01.500Z,98980.16
2024-03-05T05:25:29.363Z,98973.16
2024-03-05T05:27:55.824Z,98984.66
2024-03-05T05:30:23.801Z,98979.31
2024-03-05T05:32:50.559Z,98981.16
2024-03-05T05:35:17.930Z,98975.84
2024-03-05T05:37:45.582Z,98978.59
2024-03-05T05:40:12.493Z,98985.72
2024-03-05T05:42:39.491Z,98979.56
2024-03-05T05:45:15.805Z,98981.38
2024-03-05T05:47:50.155Z,98985.00
2024-03-05T05:50:19.851Z,98982.09
2024-03-05T05:52:49.539Z,98980.66
2024-03-05T05:55:21.540Z,98982.34
2024-03-05T05:57:49.078Z,98979.81
2024-03-05T06:00:35.871Z,98982.34
2024-03-05T06:03:05.049Z,98979.56
2024-03-05T06:05:36.445Z,98982.94
2024-03-05T06:08:04.965Z,98977.63
2024-03-05T06:10:31.897Z,98981.38
2024-03-05T06:12:58.418Z,98976.91
2024-03-05T06:15:25.123Z,98991.06
2024-03-05T06:17:52.813Z,98985.72
2024-03-05T06:20:19.456Z,98988.28
2024-03-05T06:22:46.612Z,98996.13
2024-03-05T06:25:17.384Z,98992.53
2024-03-05T06:27:43.912Z,98992.53
2024-03-05T06:30:16.418Z,99001.94
2024-03-05T06:32:47.603Z,99009.94
2024-03-05T06:35:19.975Z,99003.66
2024-03-05T06:37:47.946Z,99002.78
2024-03-05T06:40:17.498Z,99006.19
2024-03-05T06:42:52.885Z,99006.56
2024-03-05T06:45:28.274Z,99006.19
2024-03-05T06:48:11.423Z,99009.44
2024-03-05T06:50:43.472Z,99009.91
2024-03-05T06:53:30.583Z,99017.19
2024-03-05T06:56:16.486Z,99011.38
2024-03-05T06:58:45.874Z,99015.84
2024-03-05T07:01:14.553Z,99008.44
2024-03-05T07:03:43.303Z,99010.88
2024-03-05T07:06:13.994Z,99013.44
2024-03-05T07:08:43.401Z,99014.88
2024-03-05T07:11:16.990Z,99009.69
2024-03-05T07:13:48.190Z,99007.47
2024-03-05T07:16:17.611Z,99004.56
2024-03-05T07:18:46.019Z,99001.44
2024-03-05T07:21:12.468Z,99003.09
2024-03-05T07:23:41.463Z,99001.44
2024-03-05T07:26:08.276Z,99006.75
2024-03-05T07:28:35.063Z,99003.22
2024-03-05T07:31:03.287Z,98997.78
2024-03-05T07:33:31.679Z,99012.84
2024-03-05T07:35:58.217Z,99005.56
2024-03-05T07:38:24.622Z,99002.09
2024-03-05T07:40:51.555Z,99012.69
2024-03-05T07:43:18.095Z,99007.28
2024-03-05T07:45:45.607Z,99002.38
2024-03-05T07:48:13.565Z,99004.88
2024-03-05T07:50:40.429Z,99009.97
2024-03-05T07:53:07.050Z,98996.63
2024-03-05T07:58:07.575Z,99008.63
2024-03-05T08:00:34.607Z,99011.75
2024-03-05T08:03:01.073Z,99013.22
2024-03-05T08:05:27.493Z,99018.44
2024-03-05T08:08:03.341Z,99019.75
2024-03-05T08:10:30.180Z,99008.81
2024-03-05T08:12:57.146Z,99012.06
2024-03-05T08:15:28.024Z,99018.41
2024-03-05T08:17:57.269Z,99015.38
2024-03-05T08:20:28.078Z,99018.16
2024-03-05T08:22:56.517Z,99023.09
2024-03-05T08:25:24.075Z,99022.72
2024-03-05T08:27:59.281Z,99021.00
2024-03-05T08:30:30.862Z,99023.81
2024-03-05T08:32:57.681Z,99019.22
2024-03-05T08:35:26.661Z,99019.41
2024-03-05T08:37:53.135Z,99028.72
2024-03-05T08:40:21.845Z,99025.41
2024-03-05T08:42:50.330Z,99027.09
2024-03-05T08:45:23.551Z,99020.94
2024-03-05T08:47:54.458Z,99026.84
2024-03-05T08:50:22.250Z,99030.75
2024-03-05T08:52:49.445Z,99025.88
2024-03-05T08:55:18.636Z,99032.66
2024-03-05T08:57:45.462Z,99026.78
2024-03-05T09:00:31.264Z,99035.69
2024-03-05T09:03:04.620Z,99035.50
2024-03-05T09:05:32.743Z,99038.03
2024-03-05T09:07:59.309Z,99043.25
2024-03-05T09:10:25.827Z,99037.78
2024-03-05T09:12:52.380Z,99042.41
2024-03-05T09:15:18.942Z,99043.56
2024-03-05T09:17:45.397Z,99050.94
2024-03-05T09:20:18.536Z,99046.19
2024-03-05T09:22:46.740Z,99052.31
2024-03-05T09:25:15.423Z,99047.09
2024-03-05T09:27:43.393Z,99048.91
2024-03-05T09:30:14.970Z,99046.72
2024-03-05T09:32:42.792Z,99050.75
2024-03-05T09:35:10.849Z,99049.56
2024-03-05T09:37:37.898Z,99058.16
2024-03-05T09:40:07.751Z,99054.13
2024-03-05T09:42:38.091Z,99065.78
2024-03-05T09:45:07.645Z,99051.88
2024-03-05T09:47:37.386Z,99054.53
2024-03-05T09:50:05.816Z,99051.88
2024-03-05T09:52:34.002Z,99066.63
2024-03-05T09:55:01.671Z,99056.78
2024-03-05T09:57:30.110Z,99055.25
2024-03-05T09:59:56.987Z,99055.44
2024-03-05T10:02:26.582Z,99051.19
2024-03-05T10:05:00.374Z,99062.25
2024-03-05T10:07:28.376Z,99059.34
2024-03-05T10:10:05.074Z,99058.38
2024-03-05T10:12:31.506Z,99065.56
2024-03-05T10:15:11.740Z,99069.09
2024-03-05T10:17:45.732Z,99066.56
2024-03-05T10:20:33.110Z,99068.34
2024-03-05T10:23:02.866Z,99071.47
2024-03-05T10:25:31.263Z,99077.84
2024-03-05T10:27:57.893Z,99069.97
2024-03-05T10:30:37.663Z,99077.63
2024-03-05T10:33:11.489Z,99076.06
2024-03-05T10:35:39.150Z,99080.91
2024-03-05T10:38:09.816Z,99073.59
2024-03-05T10:40:37.850Z,99073.19
2024-03-05T10:43:06.264Z,99079.28
2024-03-05T10:45:42.215Z,99075.09
2024-03-05T10:48:10.851Z,99074.00
2024-03-05T10:50:44.853Z,99077.38
2024-03-05T10:53:12.790Z,99080.06
2024-03-05T10:55:40.364Z,99081.19
2024-03-05T10:58:15.371Z,99080.50
2024-03-05T11:00:47.476Z,99076.41
2024-03-05T11:03:18.141Z,99086.81
2024-03-05T11:05:53.249Z,99087.88
2024-03-05T11:08:22.367Z,99084.06
2024-03-05T11:10:54.672Z,99086.50
2024-03-05T11:13:22.489Z,99082.66
2024-03-05T11:15:50.445Z,99084.63
2024-03-05T11:18:34.121Z,99088.69
2024-03-05T11:21:11.707Z,99083.47
2024-03-05T11:23:55.251Z,99083.16
2024-03-05T11:26:27.633Z,99088.50
2024-03-05T11:29:17.918Z,99087.63
2024-03-05T11:31:48.098Z,99085.78
2024-03-05T11:34:14.778Z,99093.13
2024-03-05T11:36:41.362Z,99098.06
2024-03-05T11:39:10.575Z,99092.81
2024-03-05T11:41:39.014Z,99094.78
2024-03-05T11:44:06.067Z,99092.69
2024-03-05T11:46:44.392Z,99086.91
2024-03-05T11:49:11.796Z,99095.88
2024-03-05T11:51:40.622Z,99093.09
2024-03-05T11:54:09.649Z,99094.78
2024-03-05T11:56:37.590Z,99087.78
2024-03-05T11:59:04.394Z,99103.28
2024-03-05T12:01:31.454Z,99096.38
2024-03-05T12:04:08.424Z,99096.84
2024-03-05T12:06:42.323Z,99101.31
2024-03-05T12:09:22.310Z,99097.72
2024-03-05T12:12:04.983Z,99089.63
2024-03-05T12:14:35.776Z,99086.44
2024-03-05T12:17:07.957Z,99093.84
2024-03-05T12:19:35.746Z,99092.31
2024-03-05T12:22:02.573Z,99099.63
2024-03-05T12:24:29.737Z,99092.88
2024-03-05T12:26:57.376Z,99086.69
2024-03-05T12:29:42.598Z,99098.94
2024-03-05T12:32:12.284Z,99096.56
2024-03-05T12:34:43.973Z,99092.66
2024-03-05T12:37:11.888Z,99090.56
2024-03-05T12:39:41.100Z,99087.88
2024-03-05T12:42:10.806Z,99080.13
2024-03-05T12:44:37.315Z,99080.00
2024-03-05T12:47:12.095Z,99081.63
2024-03-05T12:49:45.357Z,99087.56
2024-03-05T12:52:23.859Z,99078.91
2024-03-05T12:55:10.866Z,99079.16
2024-03-05T12:57:37.593Z,99083.25
2024-03-05T13:00:13.650Z,99085.09
2024-03-05T13:02:40.905Z,99078.59
2024-03-05T13:05:09.212Z,99092.53
2024-03-05T13:07:36.642Z,99089.72
2024-03-05T13:10:12.052Z,99094.09
2024-03-05T13:12:39.788Z,99091.97
2024-03-05T13:15:07.159Z,99091.84
2024-03-05T13:17:33.600Z,99094.94
2024-03-05T13:20:00.030Z,99101.81
2024-03-05T13:22:26.463Z,99095.03
2024-03-05T13:24:55.730Z,99087.03
2024-03-05T13:27:22.605Z,99097.19
2024-03-05T13:29:51.441Z,99092.28
2024-03-05T13:32:20.418Z,99096.91
2024-03-05T13:34:46.813Z,99091.84
2024-03-05T13:37:13.314Z,99092.66
2024-03-05T13:39:45.480Z,99082.41
2024-03-05T13:42:11.948Z,99091.41
2024-03-05T13:44:39.229Z,99092.00
2024-03-05T13:47:06.196Z,99084.25
2024-03-05T13:49:32.609Z,99085.22
2024-03-05T13:51:59.079Z,99087.13
2024-03-05T13:54:25.528Z,99091.91
2024-03-05T13:56:52.097Z,99085.84
2024-03-05T13:59:18.658Z,99088.78
2024-03-05T14:01:45.108Z,99087.69
2024-03-05T14:04:11.645Z,99082.63
2024-03-05T14:06:42.023Z,99081.34
2024-03-05T14:09:11.924Z,99089.66
2024-03-05T14:11:41.092Z,99091.56
2024-03-05T14:14:07.850Z,99087.41
2024-03-05T14:16:39.880Z,99087.69
2024-03-05T14:19:06.701Z,99090.66
2024-03-05T14:21:33.255Z,99087.56
2024-03-05T14:23:59.656Z,99088.81
2024-03-05T14:26:26.331Z,99089.41
2024-03-05T14:28:53.184Z,99090.53
2024-03-05T14:31:20.404Z,99085.72
2024-03-05T14:33:48.056Z,99085.88
2024-03-05T14:36:15.399Z,99093.19
2024-03-05T14:38:43.347Z,99091.19
2024-03-05T14:41:10.925Z,99088.28
2024-03-05T14:43:40.350Z,99093.63
2024-03-05T14:46:07.803Z,99096.72
2024-03-05T14:48:34.594Z,99091.94
2024-03-05T14:51:01.424Z,99095.03
2024-03-05T14:53:28.485Z,99095.06
2024-03-05T14:55:55.155Z,99100.53
2024-03-05T14:58:23.815Z,99098.84
2024-03-05T15:00:50.433Z,99109.53
2024-03-05T15:03:18.806Z,99107.69
2024-03-05T15:05:45.920Z,99111.94
2024-03-05T15:08:12.389Z,99102.88
2024-03-05T15:10:39.285Z,99114.31
2024-03-05T15:13:07.555Z,99107.69
2024-03-05T15:15:33.998Z,99108.19
2024-03-05T15:18:01.836Z,99104.91
2024-03-05T15:20:28.442Z,99122.59
2024-03-05T15:22:54.908Z,99109.50
2024-03-05T15:25:22.104Z,99121.47
2024-03-05T15:27:57.126Z,99124.78
2024-03-05T15:30:32.791Z,99125.47
2024-03-05T15:33:00.229Z,99128.31
2024-03-05T15:35:29.293Z,99134.78
2024-03-05T15:37:59.849Z,99140.69
2024-03-05T15:40:27.404Z,99130.56
2024-03-05T15:42:56.382Z,99132.41
2024-03-05T15:45:26.329Z,99142.66
2024-03-05T15:47:55.628Z,99133.81
2024-03-05T15:50:24.018Z,99137.00
2024-03-05T15:52:57.582Z,99143.19
2024-03-05T15:55:26.255Z,99142.78
2024-03-05T15:58:02.538Z,99144.06
2024-03-05T16:00:38.473Z,99142.03
2024-03-05T16:03:06.221Z,99144.69
2024-03-05T16:05:52.431Z,99149.59
2024-03-05T16:08:27.370Z,99146.44
2024-03-05T16:10:55.527Z,99150.31
2024-03-05T16:13:23.200Z,99141.84
2024-03-05T16:15:50.485Z,99154.41
2024-03-05T16:18:17.227Z,99156.06
2024-03-05T16:20:44.344Z,99153.66
2024-03-05T16:23:11.592Z,99159.13
2024-03-05T16:25:43.047Z,99162.69
2024-03-05T16:28:10.839Z,99163.00
2024-03-05T16:30:38.370Z,99159.97
2024-03-05T16:33:05.899Z,99165.13
2024-03-05T16:35:36.767Z,99173.44
2024-03-05T16:38:07.870Z,99169.06
2024-03-05T16:40:38.658Z,99178.22
2024-03-05T16:43:06.806Z,99173.44
2024-03-05T16:45:34.740Z,99178.00
2024-03-05T16:48:01.725Z,99181.44
2024-03-05T16:50:30.395Z,99176.69
2024-03-05T16:52:58.771Z,99169.22
2024-03-05T16:55:27.191Z,99189.94
2024-03-05T16:57:55.670Z,99197.50
2024-03-05T17:00:32.413Z,99192.22
2024-03-05T17:03:12.545Z,99197.19
2024-03-05T17:05:41.614Z,99203.75
2024-03-05T17:08:14.989Z,99201.22
2024-03-05T17:10:43.825Z,99206.31
2024-03-05T17:13:18.490Z,99207.72
2024-03-05T17:15:52.706Z,99217.31
2024-03-05T17:18:20.419Z,99213.06
2024-03-05T17:20:46.878Z,99217.81
2024-03-05T17:23:20.632Z,99220.84
2024-03-05T17:25:48.800Z,99228.28
2024-03-05T17:28:15.365Z,99236.69
2024-03-05T17:30:44.915Z,99239.94
2024-03-05T17:33:14.965Z,99238.25
2024-03-05T17:35:42.482Z,99240.91
2024-03-05T17:38:11.217Z,99248.22
2024-03-05T17:40:38.287Z,99253.56
2024-03-05T17:43:05.200Z,99255.97
2024-03-05T17:45:32.745Z,99261.44
2024-03-05T17:48:02.274Z,99261.44
2024-03-05T17:50:29.056Z,99270.41
2024-03-05T17:52:56.201Z,99269.81
2024-03-05T17:55:22.708Z,99272.72
2024-03-05T17:57:52.025Z,99279.78
2024-03-05T18:00:28.961Z,99284.41
2024-03-05T18:02:57.421Z,99280.16
2024-03-05T18:05:28.851Z,99275.31
2024-03-05T18:07:55.602Z,99272.06
2024-03-05T18:10:23.957Z,99279.78
2024-03-05T18:12:51.213Z,99286.00
2024-03-05T18:15:20.649Z,99282.22
2024-03-05T18:17:51.762Z,99288.66
2024-03-05T18:20:20.822Z,99285.41
2024-03-05T18:22:48.625Z,99281.03
2024-03-05T18:25:17.809Z,99283.69
2024-03-05T18:27:58.029Z,99279.31
2024-03-05T18:30:42.970Z,99279.44
2024-03-05T18:33:12.116Z,99285.88
2024-03-05T18:35:41.034Z,99285.06
2024-03-05T18:38:20.424Z,99286.72
2024-03-05T18:40:54.512Z,99283.34
2024-03-05T18:43:22.271Z,99285.28
2024-03-05T18:45:50.463Z,99290.88
2024-03-05T18:48:17.038Z,99290.88
2024-03-05T18:50:44.355Z,99289.31
2024-03-05T18:53:12.279Z,99288.34
2024-03-05T18:55:38.737Z,99286.03
2024-03-05T18:58:07.871Z,99287.75
2024-03-05T19:00:35.172Z,99292.09
2024-03-05T19:03:02.054Z,99286.03
2024-03-05T19:05:28.743Z,99288.94
2024-03-05T19:07:55.260Z,99283.00
2024-03-05T19:10:21.809Z,99287.63
2024-03-05T19:12:48.824Z,99280.56
2024-03-05T19:15:18.437Z,99284.34
2024-03-05T19:17:48.461Z,99287.97
2024-03-05T19:20:15.474Z,99287.13
2024-03-05T19:22:42.478Z,99295.63
2024-03-05T19:25:11.801Z,99291.25
2024-03-05T19:27:39.681Z,99290.66
2024-03-05T19:30:11.416Z,99295.84
2024-03-05T19:32:41.556Z,99296.00
2024-03-05T19:35:12.640Z,99293.19
2024-03-05T19:37:50.763Z,99301.19
2024-03-05T19:40:18.708Z,99304.84
2024-03-05T19:42:57.172Z,99300.56
2024-03-05T19:45:24.884Z,99307.00
2024-03-05T19:47:51.898Z,99312.22
2024-03-05T19:50:19.139Z,99306.06
2024-03-05T19:52:49.165Z,99300.97
2024-03-05T19:55:16.089Z,99306.28
2024-03-05T19:57:43.949Z,99303.63
2024-03-05T20:00:24.041Z,99311.84
2024-03-05T20:02:50.773Z,99310.53
2024-03-05T20:05:18.037Z,99315.38
2024-03-05T20:07:45.387Z,99311.03
2024-03-05T20:10:12.325Z,99328.72
2024-03-05T20:12:39.254Z,99319.00
2024-03-05T20:15:09.928Z,99317.91
2024-03-05T20:17:39.508Z,99318.41
2024-03-05T20:20:06.801Z,99320.44
2024-03-05T20:22:35.288Z,99324.94
2024-03-05T20:25:01.704Z,99328.31
2024-03-05T20:27:29.090Z,99334.59
2024-03-05T20:29:56.627Z,99329.28
2024-03-05T20:32:25.565Z,99335.44
2024-03-05T20:34:52.172Z,99334.25
2024-03-05T20:37:21.066Z,99335.34
2024-03-05T20:39:50.745Z,99339.00
2024-03-05T20:42:17.279Z,99339.44
2024-03-05T20:44:43.719Z,99341.03
2024-03-05T20:47:10.224Z,99337.25
2024-03-05T20:49:36.764Z,99341.84
2024-03-05T20:52:03.273Z,99348.16
2024-03-05T20:54:29.628Z,99348.03
2024-03-05T20:56:56.998Z,99347.06
2024-03-05T20:59:26.220Z,99353.25
2024-03-05T21:01:54.139Z,99347.94
2024-03-05T21:04:20.616Z,99347.06
2024-03-05T21:06:47.148Z,99356.88
2024-03-05T21:09:14.404Z,99358.59
2024-03-05T21:11:41.072Z,99354.09
2024-03-05T21:14:08.425Z,99358.44
2024-03-05T21:16:35.008Z,99356.25
2024-03-05T21:19:03.922Z,99358.09
2024-03-05T21:21:34.782Z,99363.41
2024-03-05T21:24:01.930Z,99360.75
2024-03-05T21:29:01.115Z,99375.09
2024-03-05T21:31:29.893Z,99372.91
2024-03-05T21:33:56.399Z,99381.88
2024-03-05T21:36:23.578Z,99384.38
2024-03-05T21:38:50.050Z,99386.66
2024-03-05T21:41:16.622Z,99391.25
2024-03-05T21:43:43.108Z,99384.13
2024-03-05T21:46:09.605Z,99383.88
2024-03-05T21:48:36.079Z,99382.53
2024-03-05T21:51:09.202Z,99382.75
2024-03-05T21:53:38.764Z,99383.47
2024-03-05T21:56:05.497Z,99385.31
2024-03-05T21:58:31.889Z,99385.31
2024-03-05T22:00:58.270Z,99396.78
2024-03-05T22:03:24.677Z,99394.13
2024-03-05T22:05:51.046Z,99393.19
2024-03-05T22:08:17.495Z,99397.78
2024-03-05T22:10:43.995Z,99398.75
2024-03-05T22:13:10.428Z,99397.16
2024-03-05T22:15:36.810Z,99390.00
2024-03-05T22:18:04.954Z,99391.09
2024-03-05T22:20:31.379Z,99387.47
2024-03-05T22:22:57.877Z,99388.56
2024-03-05T22:25:24.551Z,99392.34
2024-03-05T22:27:51.844Z,99388.00
2024-03-05T22:30:18.227Z,99397.69
2024-03-05T22:32:44.725Z,99390.91
2024-03-05T22:35:11.425Z,99383.75
2024-03-05T22:37:41.561Z,99394.50
2024-03-05T22:40:09.674Z,99391.34
2024-03-05T22:42:36.163Z,99402.47
2024-03-05T22:45:03.941Z,99408.69
2024-03-05T22:47:30.392Z,99408.41
2024-03-05T22:49:56.879Z,99404.59
2024-03-05T22:52:23.289Z,99409.81
2024-03-05T22:54:49.816Z,99401.06
2024-03-05T22:57:16.270Z,99414.84
2024-03-05T22:59:42.677Z,99418.22
2024-03-05T23:02:09.235Z,99407.69
2024-03-05T23:04:35.781Z,99408.63
2024-03-05T23:07:02.249Z,99411.19
2024-03-05T23:09:28.808Z,99414.19
2024-03-05T23:11:55.385Z,99409.72
2024-03-05T23:14:21.833Z,99410.66
2024-03-05T23:16:49.736Z,99413.22
2024-03-05T23:19:16.350Z,99406.22
2024-03-05T23:21:42.766Z,99409.63
2024-03-05T23:24:10.189Z,99409.09
2024-03-05T23:26:36.713Z,99403.88
2024-03-05T23:29:03.224Z,99416.34
2024-03-05T23:31:29.868Z,99408.47
2024-03-05T23:33:56.451Z,99417.41
2024-03-05T23:36:22.903Z,99423.69
2024-03-05T23:38:49.298Z,99417.41
2024-03-05T23:41:24.760Z,99423.56
2024-03-05T23:43:58.331Z,99422.09
2024-03-05T23:46:24.803Z,99426.56
2024-03-05T23:48:51.199Z,99426.47
2024-03-05T23:51:17.692Z,99435.72
2024-03-05T23:53:44.143Z,99435.84
2024-03-05T23:56:10.704Z,99445.63
2024-03-05T23:58:38.676Z,99441.28
